This is the latest recevied weather packets stored in our database for station/object OH2EGI-2. If no packets are shown the sender has not sent any weather packets the latest 1 day(s).
| Time | Temp. | Humidity | Pressure | Rain* | Wind** | Luminosity | Snow |
|---|---|---|---|---|---|---|---|
| 1777990295 | 17.22° C | 32% | 996.6 hPa | 0 mm | 0 m/s | - | - |
| 1777989995 | 16.67° C | 33% | 996.6 hPa | 0 mm | 0 m/s | - | - |
| 1777989695 | 15.56° C | 34% | 996.5 hPa | 0 mm | 0 m/s | - | - |
| 1777989395 | 15.56° C | 34% | 996.4 hPa | 0 mm | 0 m/s | - | - |
| 1777989095 | 14.44° C | 35% | 996.5 hPa | 0 mm | 0 m/s | - | - |
| 1777988795 | 13.89° C | 36% | 996.4 hPa | 0 mm | 2.68 m/s, 292° | - | - |
| 1777988495 | 13.89° C | 36% | 996.4 hPa | 0 mm | 0 m/s | - | - |
| 1777988195 | 13.33° C | 36% | 996.5 hPa | 0 mm | 0 m/s | - | - |
| 1777987895 | 13.89° C | 36% | 996.5 hPa | 0 mm | 0 m/s | - | - |
| 1777987595 | 13.89° C | 36% | 996.4 hPa | 0 mm | 0 m/s | - | - |
| 1777987295 | 14.44° C | 35% | 996.4 hPa | 0 mm | 0 m/s | - | - |
| 1777986995 | 15° C | 35% | 996.3 hPa | 0 mm | 0 m/s | - | - |
| 1777986695 | 15° C | 34% | 996.3 hPa | 0 mm | 0 m/s | - | - |
| 1777986395 | 15.56° C | 33% | 996.4 hPa | 0 mm | 0 m/s | - | - |
| 1777986095 | 17.22° C | 31% | 996.4 hPa | 0 mm | 2.24 m/s, 337° | - | - |
| 1777985795 | 18.89° C | 30% | 996.4 hPa | 0 mm | 0 m/s | - | - |
| 1777985495 | 17.78° C | 32% | 996.3 hPa | 0 mm | 0 m/s | - | - |
| 1777985195 | 19.44° C | 30% | 996.3 hPa | 0 mm | 0 m/s | - | - |
| 1777984895 | 19.44° C | 31% | 996.3 hPa | 0 mm | 0 m/s | - | - |
| 1777984595 | 20.56° C | 30% | 996.1 hPa | 0 mm | 0 m/s | - | - |
| 1777984295 | 20° C | 31% | 996.1 hPa | 0 mm | 0 m/s | - | - |
| 1777983995 | 19.44° C | 32% | 996.2 hPa | 0 mm | 1.79 m/s, 315° | - | - |
| 1777983695 | 18.33° C | 33% | 996.1 hPa | 0 mm | 0 m/s | - | - |
| 1777983395 | 17.78° C | 33% | 996 hPa | 0 mm | 0 m/s | - | - |
| 1777983095 | 17.78° C | 34% | 995.9 hPa | 0 mm | 0 m/s | - | - |
* Rain latest hour (hover to see other rain measurements)
** Current wind speed in m/s (hover to see current wind gust speed)